Latest Weather Observations for Cocos Island

IDW60801

Issued at 2:35 am WST Monday 21 April 2014 (issued every 30 minutes, with the page automatically refreshed every 10 minutes)

About weather observations | Map of weather stations | Latest weather observations for WA | Other Formats
Station Details ID: 200284 Name: COCOS ISLAND AIRPORT Lat: -12.19 Lon: 96.83 Height: 3.0 m
Data from the previous 72 hours. | See also: Recent months at Cocos Island
Date/Time
WST
Temp
°C
App
Temp
°C
Dew
Point
Rel
Hum
%
Delta-T
°C
Wind Press
QNH
hPa
Press
MSL
hPa
Rain
since 9 am
mm
Dir
 
Spd
km/h
Gust
km/h
Spd
kts
Gust
kts
21/02:30am 27.3 30.7 24.0 82 2.3 N 13 22 7 12 1006.9 - 1.2
21/02:00am 27.1 30.2 24.2 84 2.0 N 15 20 8 11 1007.0 1007.0 1.2
21/01:30am 27.0 30.1 23.5 81 2.4 N 13 19 7 10 1007.4 - 1.2
21/01:00am 26.9 30.4 23.5 81 2.3 NNW 11 15 6 8 1007.7 - 1.2
21/12:30am 26.8 30.3 23.6 82 2.2 N 11 17 6 9 1007.7 - 1.2
21/12:00am 26.7 30.4 23.9 84 1.9 NNW 11 17 6 9 1007.7 - 1.2
 
Date/Time
WST
Temp
°C
App
Temp
°C
Dew
Point
Rel
Hum
%
Delta-T
°C
Wind Press
QNH
hPa
Press
MSL
hPa
Rain
since 9 am
mm
Dir
 
Spd
km/h
Gust
km/h
Spd
kts
Gust
kts
20/11:30pm 26.7 30.4 23.9 84 1.9 NNW 11 15 6 8 1007.6 - 1.2
20/11:00pm 26.7 30.0 23.8 84 2.0 NNW 13 19 7 10 1007.8 1007.8 1.2
20/10:30pm 26.5 30.2 23.9 85 1.8 NW 11 17 6 9 1007.8 - 1.2
20/10:00pm 26.6 28.5 23.8 84 1.9 NW 20 30 11 16 1007.9 - 1.2
20/09:30pm 26.5 28.5 23.9 85 1.8 NW 20 28 11 15 1007.8 - 1.2
20/09:00pm 26.4 27.0 24.1 87 1.6 NW 28 39 15 21 1007.9 - 1.2
20/08:30pm 27.1 27.2 23.9 82 2.2 NW 30 37 16 20 1007.8 - 1.2
20/08:00pm 27.0 28.9 24.4 86 1.8 NNW 22 35 12 19 1007.5 1007.5 1.2
20/07:30pm 27.0 29.0 24.6 87 1.7 NNW 22 33 12 18 1007.1 - 1.2
20/07:00pm 26.1 28.7 23.9 88 1.5 N 17 24 9 13 1006.9 - 1.2
20/06:30pm 26.1 27.7 23.9 88 1.5 NNW 22 35 12 19 1007.0 - 0.8
20/06:00pm 27.0 29.1 25.3 90 1.2 N 24 35 13 19 1006.6 - 0.4
20/05:30pm 28.8 31.0 25.5 82 2.3 N 24 30 13 16 1006.3 - 0.4
20/05:00pm 28.9 31.0 25.4 81 2.5 N 24 30 13 16 1006.4 1006.4 0.4
20/04:30pm 29.0 31.0 24.6 77 3.1 N 22 30 12 16 1006.3 - 0.4
20/04:00pm 29.5 31.5 24.6 75 3.4 N 22 26 12 14 1006.5 - 0.4
20/03:30pm 30.0 32.4 24.6 73 3.8 NNE 20 24 11 13 1006.8 - 0.4
20/03:00pm 29.8 33.5 25.1 76 3.3 NNE 15 19 8 10 1006.9 - 0.4
20/02:30pm 29.1 31.9 25.0 78 2.9 NE 19 20 10 11 1007.0 - 0.4
20/02:00pm 29.7 33.0 23.8 70 4.1 N 13 15 7 8 1007.1 1007.1 0.4
20/01:30pm 28.3 32.7 23.8 76 3.1 N 7 9 4 5 1007.4 - 0.4
20/01:00pm 28.4 33.0 24.7 80 2.6 N 9 9 5 5 1008.1 - 0.4
20/12:30pm 27.9 32.2 24.3 81 2.5 N 9 11 5 6 1008.8 - 0.2
20/12:00pm 27.2 31.5 24.2 84 2.1 N 9 11 5 6 1009.3 - 0.2
20/11:30am 26.4 30.6 24.1 87 1.6 N 9 15 5 8 1009.4 - 0.2
20/11:00am 26.3 30.6 24.3 89 1.4 N 9 15 5 8 1009.6 1009.6 33.4
20/10:30am 26.4 30.0 23.8 85 1.8 NNW 11 17 6 9 1009.5 - 32.6
20/10:00am 27.0 31.1 24.6 87 1.7 NNW 11 15 6 8 1009.4 - 32.6
20/09:30am 27.4 31.4 24.4 84 2.1 N 11 17 6 9 1008.9 - 32.6
20/09:00am 27.1 31.2 23.9 82 2.2 NNW 9 13 5 7 1008.5 - 32.6
20/08:30am 26.3 30.3 24.4 89 1.3 NNW 11 15 6 8 1008.7 - 32.6
20/08:00am 25.8 30.1 24.2 91 1.1 N 9 11 5 6 1008.0 1008.0 32.6
20/07:30am 25.9 29.3 24.0 89 1.3 N 13 17 7 9 1007.9 - 32.6
20/07:21am 25.8 30.2 24.4 92 1.0 N 9 19 5 10 1008.0 - 32.6
20/07:04am 24.8 29.6 24.1 96 0.5 WNW 6 7 3 4 1008.2 - 32.2
20/07:00am 24.6 29.3 23.9 96 0.5 WNW 6 7 3 4 1008.2 - 32.2
20/06:48am 24.4 28.9 23.7 96 0.5 WNW 6 7 3 4 1008.4 - 31.8
20/06:30am 24.2 28.5 23.6 96 0.4 WNW 7 9 4 5 1008.3 - 31.6
20/06:10am 24.2 27.3 23.5 96 0.5 W 13 15 7 8 1008.3 - 31.2
20/06:00am 24.2 26.1 23.5 96 0.5 WNW 19 28 10 15 1008.5 - 30.2
20/05:42am 24.7 25.9 23.2 91 1.0 NW 22 28 12 15 1008.5 - 17.8
20/05:30am 24.9 26.2 23.4 91 1.0 WNW 22 32 12 17 1008.1 - 16.6
20/05:23am 25.0 26.5 23.1 89 1.3 WNW 20 26 11 14 1008.2 - 16.6
20/05:00am 27.1 31.5 25.0 88 1.5 NNE 11 15 6 8 1007.8 1007.8 16.6
20/04:30am 27.2 30.7 24.9 87 1.6 N 15 19 8 10 1008.3 - 16.6
20/04:00am 27.2 30.0 24.9 87 1.6 NE 19 20 10 11 1008.2 - 16.6
20/03:30am 27.1 30.4 24.5 86 1.8 NE 15 20 8 11 1008.5 - 16.6
20/03:00am 26.9 30.1 24.3 86 1.8 NNE 15 19 8 10 1008.8 - 16.6
20/02:30am 26.5 30.1 24.3 88 1.5 N 13 17 7 9 1009.2 - 16.6
20/02:00am 26.1 29.6 24.2 89 1.3 N 13 17 7 9 1009.4 1009.4 16.6
20/01:30am 25.7 28.6 24.4 92 0.9 N 17 19 9 10 1009.5 - 16.6
20/01:00am 24.8 29.6 24.2 96 0.4 N 6 9 3 5 1009.8 - 16.6
20/12:47am 24.6 28.1 24.2 98 0.3 NNW 13 17 7 9 1009.8 - 16.6
20/12:30am 24.4 26.1 24.1 98 0.2 NNW 22 30 12 16 1010.2 - 16.6
20/12:15am 25.5 27.2 24.6 95 0.6 NNW 24 37 13 20 1010.5 - 11.2
20/12:00am 25.8 28.1 23.5 87 1.6 NNW 17 24 9 13 1010.3 - 10.0
 
Date/Time
WST
Temp
°C
App
Temp
°C
Dew
Point
Rel
Hum
%
Delta-T
°C
Wind Press
QNH
hPa
Press
MSL
hPa
Rain
since 9 am
mm
Dir
 
Spd
km/h
Gust
km/h
Spd
kts
Gust
kts
19/11:30pm 26.3 28.8 23.8 86 1.7 NW 17 24 9 13 1010.2 - 9.4
19/11:00pm 27.2 29.1 23.7 81 2.4 N 20 32 11 17 1010.3 1010.3 9.4
19/10:30pm 28.6 31.3 25.0 81 2.5 NNE 20 24 11 13 1009.8 - 9.4
19/10:00pm 28.6 31.4 25.0 81 2.5 NNE 19 24 10 13 1009.6 - 9.4
19/09:30pm 28.7 30.7 24.5 78 2.9 NNE 22 26 12 14 1009.5 - 9.4
19/09:00pm 28.7 31.2 24.7 79 2.8 NNE 20 26 11 14 1009.2 - 9.4
19/08:30pm 28.5 31.5 25.5 84 2.1 NE 20 26 11 14 1008.6 - 9.4
19/08:00pm 28.7 31.5 25.3 82 2.4 NNE 20 28 11 15 1008.5 1008.5 9.4
19/07:30pm 28.7 31.0 24.5 78 2.9 NE 20 24 11 13 1008.4 - 9.4
19/07:00pm 28.7 31.6 25.1 81 2.5 NE 19 26 10 14 1008.2 - 9.4
19/06:30pm 28.9 31.6 25.1 80 2.7 NE 20 22 11 12 1008.2 - 9.4
19/06:00pm 29.0 31.7 25.0 79 2.8 NE 20 24 11 13 1007.8 - 9.4
19/05:30pm 29.1 31.6 24.7 77 3.1 NE 20 24 11 13 1007.9 - 9.4
19/05:00pm 29.1 31.4 24.5 76 3.2 N 20 24 11 13 1007.6 1007.6 9.4
19/04:30pm 28.7 31.4 24.7 79 2.8 N 19 22 10 12 1007.6 - 9.4
19/04:00pm 29.1 32.2 24.8 77 3.0 N 17 22 9 12 1007.6 - 9.4
19/03:30pm 28.6 32.1 24.9 80 2.6 N 15 20 8 11 1008.2 - 9.2
19/03:00pm 28.0 31.2 24.9 83 2.2 N 17 20 9 11 1008.6 - 9.2
19/02:30pm 27.7 30.8 24.8 84 2.0 N 17 26 9 14 1009.3 - 9.2
19/02:00pm 27.5 31.5 25.1 87 1.7 N 13 19 7 10 1009.4 1009.4 9.0
19/01:43pm 27.1 31.5 25.1 89 1.4 N 11 15 6 8 1009.8 - 9.0
19/01:30pm 26.2 30.6 25.1 94 0.8 NNW 11 17 6 9 1010.0 - 9.0
19/01:08pm 26.0 27.4 24.8 93 0.8 NNW 26 37 14 20 1010.2 - 5.2
19/01:00pm 26.3 28.2 24.4 89 1.3 NW 22 35 12 19 1010.2 - 5.0
19/12:41pm 27.6 32.0 25.6 89 1.4 NE 13 15 7 8 1010.3 - 5.0
19/12:30pm 26.8 31.3 25.2 91 1.1 ENE 11 19 6 10 1010.4 - 5.0
19/12:18pm 25.9 26.3 23.7 88 1.5 N 28 48 15 26 1010.6 - 1.8
19/12:14pm 26.0 26.5 24.0 89 1.4 N 28 41 15 22 1010.6 - 0.4
19/12:00pm 29.6 32.1 25.3 77 3.0 NE 22 28 12 15 1010.6 - 0.0
19/11:30am 29.4 31.5 25.3 78 2.9 NE 24 28 13 15 1010.6 - 0.0
19/11:00am 29.5 32.3 25.2 77 3.0 NE 20 26 11 14 1010.6 1010.6 19.6
19/10:30am 28.9 30.7 24.9 79 2.8 NE 24 32 13 17 1010.3 - 19.6
19/10:00am 28.4 30.6 24.8 81 2.5 NE 22 28 12 15 1010.0 - 19.6
19/09:30am 28.3 30.7 25.2 83 2.2 NNE 22 28 12 15 1009.8 - 19.6
19/09:00am 28.2 29.9 24.6 81 2.5 NE 24 28 13 15 1009.4 - 19.6
19/08:30am 28.0 30.1 24.7 82 2.3 NNE 22 28 12 15 1009.2 - 19.6
19/08:00am 27.8 29.4 24.5 82 2.3 NNE 24 30 13 16 1008.8 1008.8 19.6
19/07:30am 27.5 29.3 24.3 83 2.2 NE 22 28 12 15 1008.8 - 19.6
19/07:00am 27.5 29.5 24.6 84 2.0 NE 22 28 12 15 1008.6 - 19.6
19/06:30am 27.3 29.2 24.4 84 2.0 NE 22 24 12 13 1008.7 - 19.6
19/06:00am 27.3 29.3 24.6 85 1.9 NE 22 28 12 15 1009.0 - 19.6
19/05:30am 26.9 29.1 24.9 89 1.4 NE 22 24 12 13 1009.1 - 19.6
19/05:00am 26.6 28.7 24.1 86 1.7 NE 20 22 11 12 1009.1 1009.1 19.6
19/04:30am 26.3 28.6 24.4 89 1.3 NE 20 24 11 13 1009.1 - 19.6
19/04:00am 26.0 28.8 24.3 90 1.2 NE 17 20 9 11 1009.2 - 19.6
19/03:30am 25.9 28.8 24.5 92 1.0 ENE 17 20 9 11 1009.4 - 19.6
19/03:00am 25.7 29.0 23.2 86 1.7 N 11 20 6 11 1010.1 - 19.4
19/02:30am 25.1 27.1 23.0 88 1.4 NNW 17 24 9 13 1010.7 - 19.0
19/02:07am 25.1 26.1 23.5 91 1.1 N 24 35 13 19 1011.2 - 18.2
19/02:00am 26.1 27.0 23.3 84 1.9 N 24 41 13 22 1011.2 1011.2 17.8
19/01:30am 27.9 30.5 24.9 84 2.1 NE 20 26 11 14 1011.0 - 17.8
19/01:00am 28.0 29.7 24.7 82 2.3 NE 24 28 13 15 1011.2 - 17.8
19/12:30am 28.0 29.6 25.1 84 2.0 NE 26 32 14 17 1011.4 - 17.8
19/12:00am 27.8 29.1 25.2 86 1.8 NE 28 32 15 17 1011.3 - 17.8
 
Date/Time
WST
Temp
°C
App
Temp
°C
Dew
Point
Rel
Hum
%
Delta-T
°C
Wind Press
QNH
hPa
Press
MSL
hPa
Rain
since 9 am
mm
Dir
 
Spd
km/h
Gust
km/h
Spd
kts
Gust
kts
18/11:30pm 27.9 29.7 24.9 84 2.1 NE 24 30 13 16 1011.4 - 17.8
18/11:00pm 27.8 28.7 24.6 83 2.2 ENE 28 33 15 18 1011.2 1011.2 17.8
18/10:30pm 27.9 27.9 24.4 81 2.4 ENE 32 35 17 19 1010.9 - 17.8
18/10:00pm 27.7 28.1 25.1 86 1.8 ENE 32 35 17 19 1010.5 - 17.8
18/09:30pm 27.6 28.5 25.2 87 1.7 NE 30 33 16 18 1009.8 - 17.8
18/09:00pm 27.5 28.8 25.2 87 1.6 ENE 28 32 15 17 1009.5 - 17.8
18/08:30pm 27.3 27.6 24.9 87 1.7 ENE 32 39 17 21 1009.6 - 17.8
18/08:00pm 27.2 28.1 25.8 92 1.0 ENE 32 35 17 19 1009.4 1009.4 17.8
18/07:30pm 26.7 28.2 25.0 90 1.2 E 26 30 14 16 1009.4 - 17.8
18/07:00pm 26.0 30.0 25.0 94 0.7 ESE 13 17 7 9 1009.2 - 17.8
18/06:40pm 25.6 29.1 24.9 96 0.5 E 15 20 8 11 1009.0 - 17.8
18/06:30pm 25.3 28.7 25.2 99 0.1 E 17 24 9 13 1009.1 - 17.8
18/06:00pm 26.9 29.4 25.3 91 1.1 E 22 32 12 17 1009.1 - 13.4
18/05:56pm 26.8 30.2 25.2 91 1.1 E 17 28 9 15 1009.0 - 13.4
18/05:35pm 26.6 28.8 25.5 94 0.8 ENE 24 33 13 18 1008.9 - 13.0
18/05:30pm 26.4 29.1 25.1 92 0.9 E 20 26 11 14 1008.8 - 13.0
18/05:14pm 26.1 28.0 25.0 94 0.8 E 24 33 13 18 1008.6 - 13.0
18/05:00pm 26.5 31.5 25.4 94 0.8 N 9 13 5 7 1008.6 1008.6 13.0
18/04:50pm 25.9 29.9 25.0 95 0.6 NNE 13 22 7 12 1008.6 - 13.0
18/04:34pm 25.2 28.8 24.3 95 0.6 NE 13 15 7 8 1008.6 - 11.2
18/04:30pm 25.4 25.5 24.5 95 0.6 NNE 32 44 17 24 1008.7 - 7.8
18/04:26pm 26.1 28.5 24.2 89 1.3 NNW 19 28 10 15 1008.4 - 4.4
18/04:00pm 26.9 29.7 25.0 89 1.3 NNW 19 28 10 15 1008.4 - 2.4
18/03:48pm 29.1 33.0 25.4 80 2.6 ENE 15 17 8 9 1008.3 - 2.4
18/03:40pm 27.7 30.7 25.3 87 1.7 E 19 30 10 16 1008.5 - 2.4
18/03:30pm 26.3 27.3 24.7 91 1.1 E 28 33 15 18 1008.6 - 2.2
18/03:19pm 28.9 29.2 24.9 79 2.8 NE 32 52 17 28 1008.6 - 0.0
18/03:00pm 30.2 31.6 25.4 75 3.4 NE 28 32 15 17 1008.8 - 0.0
18/02:30pm 30.4 31.7 25.9 77 3.2 NE 30 33 16 18 1008.9 - 0.0
18/02:23pm 30.2 31.8 25.7 77 3.2 ENE 28 33 15 18 1009.0 - 0.0
18/02:12pm 29.8 32.5 25.7 78 2.9 NE 22 26 12 14 1009.1 - 0.0
18/02:00pm 30.4 32.9 25.9 77 3.2 ENE 24 32 13 17 1009.2 1009.2 0.0
18/01:30pm 30.3 31.9 25.8 77 3.2 ENE 28 33 15 18 1009.2 - 0.0
18/01:00pm 30.2 31.8 25.7 77 3.2 ENE 28 32 15 17 1009.3 - 0.0
18/12:30pm 29.9 31.9 25.7 78 3.0 ENE 26 30 14 16 1009.5 - 0.0
18/12:00pm 29.9 31.9 25.1 75 3.4 ENE 24 26 13 14 1010.0 - 0.0
18/11:30am 29.8 32.5 25.7 78 2.9 ENE 22 28 12 15 1010.1 - 0.0
18/11:00am 29.7 32.5 25.2 77 3.2 ENE 20 24 11 13 1010.4 1010.4 17.4
18/10:30am 28.6 32.7 25.2 82 2.4 E 13 15 7 8 1010.3 - 17.4
18/10:00am 28.1 31.6 24.8 82 2.3 E 15 20 8 11 1010.0 - 17.4
18/09:30am 27.6 30.0 24.3 82 2.3 E 19 22 10 12 1009.9 - 17.4
18/09:00am 27.4 30.1 25.0 87 1.7 E 20 32 11 17 1009.5 - 17.4
18/08:30am 26.9 29.4 23.8 83 2.1 E 17 22 9 12 1009.3 - 17.4
18/08:00am 26.8 27.4 24.8 89 1.4 ENE 30 39 16 21 1009.1 1009.1 17.4
18/07:43am 26.9 30.3 24.0 84 2.0 N 13 20 7 11 1009.1 - 17.0
18/07:30am 27.2 30.9 25.1 88 1.5 ENE 15 35 8 19 1008.7 - 17.0
18/07:00am 27.2 29.8 24.9 87 1.6 NNE 20 24 11 13 1008.3 - 17.0
18/06:42am 26.8 28.8 24.5 87 1.6 ENE 22 26 12 14 1008.0 - 17.0
18/06:30am 26.5 28.5 24.5 89 1.4 ENE 22 26 12 14 1007.9 - 17.0
18/06:10am 27.2 30.0 25.2 89 1.4 ENE 20 22 11 12 1007.8 - 12.0
18/06:00am 27.5 31.7 25.4 88 1.5 NNE 13 17 7 9 1007.7 - 11.2
18/05:30am 27.3 31.4 25.2 88 1.5 NNE 13 15 7 8 1007.7 - 11.2
18/05:00am 26.9 29.7 24.9 89 1.4 ENE 19 22 10 12 1007.5 1007.5 11.2
18/04:39am 26.3 29.3 24.6 90 1.2 NE 17 24 9 13 1007.7 - 11.2
18/04:30am 25.5 28.6 24.2 92 0.9 NE 15 20 8 11 1007.8 - 11.2
18/04:11am 25.8 26.3 24.6 93 0.8 NNE 30 46 16 25 1007.9 - 8.0
18/04:09am 26.2 27.2 24.8 92 1.0 N 28 46 15 25 1007.8 - 7.4

Other Formats:

Comma delimited format used in spreadsheet applications
http://www.bom.gov.au/fwo/IDW60801/IDW60801.96996.axf

JavaScript Object Notation format (JSON) in row-major order
http://www.bom.gov.au/fwo/IDW60801/IDW60801.96996.json